Bill's Weather Station Status


Memory

               total        used        free      shared  buff/cache   available
Mem:         3918876      581232      135944        2796     3201700     3068888
Swap:              0           0           0

Uptime

 11:28:59 up 463 days, 23:15,  0 users,  load average: 0.42, 0.24, 0.22


Temperature Database

meteo table size: 880493 rows

Last 50 temperature measurements:
2026-05-10 11:25:05: Inside: 65.6, Outside: 67.5, Pressure: 29.955, Humidity:  51, Illumination: 161.00
2026-05-10 11:20:05: Inside: 65.6, Outside: 69.8, Pressure: 29.956, Humidity:  52, Illumination: 170.00
2026-05-10 11:15:05: Inside: 65.5, Outside: 69.3, Pressure: 29.958, Humidity:  52, Illumination: 203.00
2026-05-10 11:10:04: Inside: 65.4, Outside: 68.5, Pressure: 29.960, Humidity:  52, Illumination: 177.00
2026-05-10 11:05:05: Inside: 65.3, Outside: 68.2, Pressure: 29.958, Humidity:  52, Illumination: 149.00
2026-05-10 11:00:05: Inside: 65.2, Outside: 66.9, Pressure: 29.955, Humidity:  52, Illumination: 206.00
2026-05-10 10:55:05: Inside: 65.1, Outside: 65.6, Pressure: 29.953, Humidity:  52, Illumination: 134.00
2026-05-10 10:50:05: Inside: 65.1, Outside: 65.5, Pressure: 29.956, Humidity:  52, Illumination: 150.00
2026-05-10 10:45:05: Inside: 65.0, Outside: 63.7, Pressure: 29.958, Humidity:  52, Illumination: 155.00
2026-05-10 10:40:05: Inside: 65.0, Outside: 63.3, Pressure: 29.958, Humidity:  52, Illumination: 116.00
2026-05-10 10:35:05: Inside: 65.0, Outside: 62.8, Pressure: 29.960, Humidity:  52, Illumination: 123.00
2026-05-10 10:30:06: Inside: 64.8, Outside: 62.0, Pressure: 29.961, Humidity:  52, Illumination: 112.00
2026-05-10 10:25:06: Inside: 64.8, Outside: 62.4, Pressure: 29.956, Humidity:  51, Illumination: 110.00
2026-05-10 10:20:05: Inside: 64.7, Outside: 62.1, Pressure: 29.955, Humidity:  51, Illumination: 128.00
2026-05-10 10:15:05: Inside: 64.6, Outside: 62.4, Pressure: 29.954, Humidity:  51, Illumination: 125.00
2026-05-10 10:10:05: Inside: 64.6, Outside: 62.1, Pressure: 29.952, Humidity:  50, Illumination: 145.00
2026-05-10 10:05:05: Inside: 64.6, Outside: 62.1, Pressure: 29.948, Humidity:  51, Illumination: 158.00
2026-05-10 10:00:04: Inside: 64.5, Outside: 60.6, Pressure: 29.946, Humidity:  51, Illumination: 164.00
2026-05-10 09:55:05: Inside: 64.5, Outside: 59.8, Pressure: 29.949, Humidity:  51, Illumination: 107.00
2026-05-10 09:50:05: Inside: 64.5, Outside: 59.9, Pressure: 29.952, Humidity:  51, Illumination: 90.00
2026-05-10 09:45:04: Inside: 64.4, Outside: 59.3, Pressure: 29.952, Humidity:  51, Illumination: 133.00
2026-05-10 09:40:06: Inside: 64.3, Outside: 58.1, Pressure: 29.948, Humidity:  51, Illumination: 66.00
2026-05-10 09:35:06: Inside: 64.3, Outside: 57.6, Pressure: 29.953, Humidity:  51, Illumination: 60.00
2026-05-10 09:30:06: Inside: 64.3, Outside: 58.7, Pressure: 29.948, Humidity:  50, Illumination: 75.00
2026-05-10 09:25:06: Inside: 64.3, Outside: 59.1, Pressure: 29.950, Humidity:  50, Illumination: 81.00
2026-05-10 09:20:06: Inside: 64.3, Outside: 59.1, Pressure: 29.942, Humidity:  50, Illumination: 108.00
2026-05-10 09:15:05: Inside: 64.3, Outside: 58.7, Pressure: 29.943, Humidity:  50, Illumination: 90.00
2026-05-10 09:10:05: Inside: 64.3, Outside: 57.9, Pressure: 29.945, Humidity:  50, Illumination: 85.00
2026-05-10 09:05:05: Inside: 64.3, Outside: 57.9, Pressure: 29.946, Humidity:  50, Illumination: 84.00
2026-05-10 09:00:05: Inside: 64.3, Outside: 58.5, Pressure: 29.946, Humidity:  50, Illumination: 83.00
2026-05-10 08:55:05: Inside: 64.3, Outside: 58.7, Pressure: 29.941, Humidity:  50, Illumination: 134.00
2026-05-10 08:50:05: Inside: 64.2, Outside: 58.2, Pressure: 29.942, Humidity:  50, Illumination: 132.00
2026-05-10 08:45:06: Inside: 64.2, Outside: 57.2, Pressure: 29.942, Humidity:  50, Illumination: 105.00
2026-05-10 08:40:06: Inside: 64.1, Outside: 56.8, Pressure: 29.940, Humidity:  50, Illumination: 45.00
2026-05-10 08:35:05: Inside: 64.1, Outside: 56.8, Pressure: 29.935, Humidity:  50, Illumination: 86.00
2026-05-10 08:30:05: Inside: 64.1, Outside: 56.4, Pressure: 29.928, Humidity:  50, Illumination: 94.00
2026-05-10 08:25:05: Inside: 64.1, Outside: 56.0, Pressure: 29.927, Humidity:  50, Illumination: 81.00
2026-05-10 08:20:05: Inside: 64.0, Outside: 55.9, Pressure: 29.928, Humidity:  51, Illumination: 74.00
2026-05-10 08:15:05: Inside: 64.0, Outside: 55.4, Pressure: 29.927, Humidity:  51, Illumination: 68.00
2026-05-10 08:10:05: Inside: 63.8, Outside: 54.6, Pressure: 29.928, Humidity:  51, Illumination: 60.00
2026-05-10 08:05:06: Inside: 64.0, Outside: 54.4, Pressure: 29.932, Humidity:  51, Illumination: 28.00
2026-05-10 08:00:06: Inside: 63.8, Outside: 54.8, Pressure: 29.928, Humidity:  51, Illumination: 68.00
2026-05-10 07:55:05: Inside: 63.8, Outside: 54.4, Pressure: 29.928, Humidity:  51, Illumination: 64.00
2026-05-10 07:50:06: Inside: 63.8, Outside: 54.0, Pressure: 29.927, Humidity:  51, Illumination: 52.00
2026-05-10 07:45:05: Inside: 63.8, Outside: 53.8, Pressure: 29.923, Humidity:  51, Illumination: 42.00
2026-05-10 07:40:05: Inside: 63.8, Outside: 53.8, Pressure: 29.922, Humidity:  51, Illumination: 43.00
2026-05-10 07:35:05: Inside: 63.8, Outside: 53.7, Pressure: 29.922, Humidity:  51, Illumination: 37.00
2026-05-10 07:30:06: Inside: 63.8, Outside: 53.6, Pressure: 29.918, Humidity:  51, Illumination: 35.00
2026-05-10 07:25:05: Inside: 63.8, Outside: 53.7, Pressure: 29.914, Humidity:  51, Illumination: 34.00
2026-05-10 07:20:05: Inside: 63.8, Outside: 53.5, Pressure: 29.915, Humidity:  51, Illumination: 31.00

Gas Readings Database

gas table size: 254426 rows

Last 50 gas reading changes:
2026-05-10 10:57:29: Reading: 101998
2026-05-10 10:41:14: Reading: 101994,   ΔT:  16 min,   ΔR:  4 cf
2026-05-10 09:33:59: Reading: 101992,   ΔT:  67 min,   ΔR:  2 cf
2026-05-10 09:25:44: Reading: 101988,   ΔT:   8 min,   ΔR:  4 cf
2026-05-10 08:43:59: Reading: 101986,   ΔT:  41 min,   ΔR:  2 cf
2026-05-10 07:29:45: Reading: 101982,   ΔT:  74 min,   ΔR:  4 cf
2026-05-10 06:14:00: Reading: 101978,   ΔT:  75 min,   ΔR:  4 cf
2026-05-10 04:59:00: Reading: 101974,   ΔT:  75 min,   ΔR:  4 cf
2026-05-10 04:56:00: Reading: 101972,   ΔT:   3 min,   ΔR:  2 cf
2026-05-10 03:33:29: Reading: 101970,   ΔT:  82 min,   ΔR:  2 cf
2026-05-10 03:32:30: Reading: 101968,   ΔT:   0 min,   ΔR:  2 cf
2026-05-10 03:07:15: Reading: 101966,   ΔT:  25 min,   ΔR:  2 cf
2026-05-10 02:12:30: Reading: 101964,   ΔT:  54 min,   ΔR:  2 cf
2026-05-10 00:29:15: Reading: 101960,   ΔT: 103 min,   ΔR:  4 cf
2026-05-10 00:28:15: Reading: 101958,   ΔT:   1 min,   ΔR:  2 cf
2026-05-09 23:02:45: Reading: 101954,   ΔT:  85 min,   ΔR:  4 cf
2026-05-09 23:01:30: Reading: 101952,   ΔT:   1 min,   ΔR:  2 cf
2026-05-09 23:00:45: Reading: 101950,   ΔT:   0 min,   ΔR:  2 cf
2026-05-09 21:33:15: Reading: 101948,   ΔT:  87 min,   ΔR:  2 cf
2026-05-09 21:31:15: Reading: 101946,   ΔT:   2 min,   ΔR:  2 cf
2026-05-09 21:30:44: Reading: 101944,   ΔT:   0 min,   ΔR:  2 cf
2026-05-09 21:21:14: Reading: 101942,   ΔT:   9 min,   ΔR:  2 cf
2026-05-09 19:11:29: Reading: 101940,   ΔT: 129 min,   ΔR:  2 cf
2026-05-09 19:08:30: Reading: 101936,   ΔT:   2 min,   ΔR:  4 cf
2026-05-09 18:14:00: Reading: 101934,   ΔT:  54 min,   ΔR:  2 cf
2026-05-09 18:13:15: Reading: 101932,   ΔT:   0 min,   ΔR:  2 cf
2026-05-09 18:10:44: Reading: 101928,   ΔT:   2 min,   ΔR:  4 cf
2026-05-09 17:23:15: Reading: 101926,   ΔT:  47 min,   ΔR:  2 cf
2026-05-09 17:20:45: Reading: 101922,   ΔT:   2 min,   ΔR:  4 cf
2026-05-09 17:19:45: Reading: 101920,   ΔT:   1 min,   ΔR:  2 cf
2026-05-09 16:33:16: Reading: 101918,   ΔT:  46 min,   ΔR:  2 cf
2026-05-09 16:00:01: Reading: 101916,   ΔT:  33 min,   ΔR:  2 cf
2026-05-09 15:57:45: Reading: 101914,   ΔT:   2 min,   ΔR:  2 cf
2026-05-09 15:55:46: Reading: 101912,   ΔT:   1 min,   ΔR:  2 cf
2026-05-09 15:01:30: Reading: 101910,   ΔT:  54 min,   ΔR:  2 cf
2026-05-09 14:51:00: Reading: 101908,   ΔT:  10 min,   ΔR:  2 cf
2026-05-09 14:50:00: Reading: 101906,   ΔT:   1 min,   ΔR:  2 cf
2026-05-09 14:49:00: Reading: 101904,   ΔT:   1 min,   ΔR:  2 cf
2026-05-09 14:05:15: Reading: 101902,   ΔT:  43 min,   ΔR:  2 cf
2026-05-09 14:03:45: Reading: 101900,   ΔT:   1 min,   ΔR:  2 cf
2026-05-09 13:13:15: Reading: 101898,   ΔT:  50 min,   ΔR:  2 cf
2026-05-09 12:48:46: Reading: 101896,   ΔT:  24 min,   ΔR:  2 cf
2026-05-09 12:48:16: Reading: 101894,   ΔT:   0 min,   ΔR:  2 cf
2026-05-09 11:29:00: Reading: 101892,   ΔT:  79 min,   ΔR:  2 cf
2026-05-09 10:14:01: Reading: 101888,   ΔT:  74 min,   ΔR:  4 cf
2026-05-09 08:55:01: Reading: 101884,   ΔT:  79 min,   ΔR:  4 cf
2026-05-09 07:36:16: Reading: 101880,   ΔT:  78 min,   ΔR:  4 cf
2026-05-09 07:32:16: Reading: 101878,   ΔT:   4 min,   ΔR:  2 cf
2026-05-09 06:59:15: Reading: 101876,   ΔT:  33 min,   ΔR:  2 cf
2026-05-09 06:18:31: Reading: 101874,   ΔT:  40 min,   ΔR:  2 cf